Flight Track Log - Related Links

Times and Time Zones

All times are in EDT time to prevent confusion due to time zone crossing. See the N3333A flight status page for this flight to view local times or setup timezone preferences in your user account.

Time Position Orientation Groundspeed Altitude Reporting Facility
EDT Latitude Longitude Course Direction KTS MPH feet Rate Location/Type
Sun 11:14:06 AM 26.8642 -80.4100 261° West 114 131 4,900  Level Miami Center
Sun 11:15:06 AM 26.8633 -80.4472 269° West 119 137 5,500 500 Climbing Miami Center
Sun 11:16:06 AM 26.8625 -80.4800 268° West 133 153 5,900 200 Climbing Miami Center
Sun 11:17:06 AM 26.8550 -80.5261 260° West 155 178 5,900  Level Miami Center
Sun 11:18:06 AM 26.8517 -80.5819 266° West 155 178 5,900  Level Miami Center
Sun 11:19:06 AM 26.8483 -80.6331 266° West 160 184 5,900  Level Miami Center
Sun 11:20:06 AM 26.8428 -80.6817 263° West 160 184 5,900  Level Miami Center
Sun 11:21:06 AM 26.8478 -80.7261 277° West 160 184 5,900  Level Miami Center
Sun 11:22:06 AM 26.8506 -80.7775 273° West 160 184 5,900  Level Miami Center
Sun 11:23:06 AM 26.8472 -80.8308 266° West 160 184 5,900  Level Miami Center
Sun 11:24:06 AM 26.8478 -80.8822 271° West 160 184 5,900  Level Miami Center
Sun 11:25:06 AM 26.8483 -80.9356 271° West 160 184 5,900  Level Miami Center
Sun 11:26:06 AM 26.8472 -80.9800 268° West 160 184 5,900  Level Miami Center
Sun 11:27:06 AM 26.8475 -81.0381 270° West 160 184 5,900  Level Miami Center
Sun 11:28:06 AM 26.8503 -81.0917 273° West 170 196 5,900  Level Miami Center
Sun 11:29:06 AM 26.8550 -81.1431 276° West 170 196 5,900  Level Miami Center
Sun 11:30:06 AM 26.8639 -81.1922 281° West 170 196 5,900  Level Miami Center
Sun 11:31:06 AM 26.8667 -81.2436 273° West 170 196 5,900  Level Miami Center
Sun 11:32:06 AM 26.8672 -81.2947 271° West 163 188 5,900  Level Miami Center
Sun 11:33:06 AM 26.8697 -81.3439 273° West 163 188 5,900  Level Miami Center
Sun 11:34:06 AM 26.8786 -81.3931 281° West 158 182 5,900  Level Miami Center
Sun 11:35:06 AM 26.9133 -81.4222 323° Northwest 158 182 5,900 -50 Level Miami Center
Sun 11:36:06 AM 26.9497 -81.4586 318° Northwest 169 194 5,800 -583 Descending Miami Center
Sun 11:37:30 AM 27.0128 -81.5078 325° Northwest 175 201 4,500 -875 Descending Miami Center
Sun 11:38:30 AM 27.0453 -81.5369 321° Northwest 175 201 3,700 -955 Descending Miami Center
Sun 11:39:42 AM 27.0919 -81.5808 320° Northwest 175 201 2,400 -773 Descending Miami Center
Sun 11:40:42 AM 27.1283 -81.6150 320° Northwest 180 207 2,000 -300 Descending Miami Center
Sun 11:41:42 AM 27.1564 -81.6511 311° West 169 194 1,800 -150 Descending Miami Center
Sun 11:42:42 AM 27.1842 -81.6897 309° West 163 188 1,700 -50 Descending Miami Center
Sun 11:43:42 AM 27.2122 -81.7283 309° West 163 188 1,700  Level Miami Center
Sun 11:44:42 AM 27.2403 -81.7619 313° West 157 181 1,700  Level Miami Center
Sun 11:45:42 AM 27.2725 -81.7939 319° Northwest 157 181 1,700 -100 Level Miami Center
Sun 11:46:42 AM 27.3139 -81.8050 347° North 147 169 1,500 -100 Descending Miami Center
Sun 11:47:42 AM 27.3550 -81.8231 339° North 152 175 1,500  Level Miami Center
Sun 11:48:42 AM 27.3961 -81.8411 339° North 152 175 1,500  Level Miami Center
Sun 11:49:42 AM 27.4372 -81.8594 338° Northwest 152 175 1,500  Level Miami Center
Sun 11:50:42 AM 27.4786 -81.8753 341° North 152 175 1,500 -50 Level Miami Center
Sun 11:51:42 AM 27.5194 -81.8958 336° Northwest 152 175 1,400 -100 Descending Miami Center

Login

Don't have an account? Register now (free) for customized features, flight alerts, and more!